Time;durP1;ratioP1;P1;durP2;ratioP2;P2;SDS_P1;SDS_P2;PMS_P1;PMS_P2;Temp;Humidity;BMP_temperature;BMP_pressure;BME280_temperature;BME280_humidity;BME280_pressure;Samples;Min_cycle;Max_cycle;Signal;HPM_P1;HPM_P2
2022/12/31 00:01:52;;;;;;;;;;;;;;;;;;;;;
2022/12/31 00:05:07;;;;;;;4.35;1.40;;;;;;;;;;6033814;23;20023;-76
2022/12/31 00:31:43;;;;;;;2.03;1.20;;;;;;;;;;6047452;23;20026;-74
2022/12/31 00:34:25;;;;;;;2.35;1.13;;;;;;;;;;6034372;23;20032;-73
2022/12/31 00:36:52;;;;;;;4.35;1.33;;;;;;;;;;5885072;23;20088;-73
2022/12/31 00:39:19;;;;;;;3.75;1.15;;;;;;;;;;5910009;23;20028;-74
2022/12/31 00:42:01;;;;;;;2.40;1.30;;;;;;;;;;6024048;23;20025;-73
2022/12/31 00:50:09;;;;;;;2.88;1.20;;;;;;;;;;4923697;27;20499;-74
2022/12/31 00:52:36;;;;;;;;;;;;;;;;;;4918897;28;20066;-75
2022/12/31 00:55:04;;;;;;;1.75;1.00;;;;;;;;;;4881800;28;20822;-75
2022/12/31 01:02:39;;;;;;;1.85;1.17;;;;;;;;;;5028628;27;20431;-71
2022/12/31 01:05:13;;;;;;;2.25;1.20;;;;;;;;;;4994215;28;20056;-72
2022/12/31 01:07:40;;;;;;;2.05;1.02;;;;;;;;;;4970057;28;20053;-72
2022/12/31 01:12:56;;;;;;;2.83;1.02;;;;;;;;;;5031893;28;20423;-73
2022/12/31 01:15:25;;;;;;;2.15;1.08;;;;;;;;;;4938286;28;20047;-74
2022/12/31 01:17:52;;;;;;;1.95;1.02;;;;;;;;;;4924498;28;20055;-73
2022/12/31 01:20:19;;;;;;;3.30;1.20;;;;;;;;;;4896752;28;20050;-73
2022/12/31 01:30:19;;;;;;;1.98;1.00;;;;;;;;;;4995563;27;20461;-73
2022/12/31 01:32:46;;;;;;;2.28;0.90;;;;;;;;;;4934932;28;20081;-73
2022/12/31 01:40:21;;;;;;;3.13;1.45;;;;;;;;;;5013721;27;20427;-71
2022/12/31 01:42:53;;;;;;;2.03;1.08;;;;;;;;;;4999560;28;20046;-71
2022/12/31 01:45:20;;;;;;;3.75;1.40;;;;;;;;;;4963319;28;20064;-71
2022/12/31 01:47:49;;;;;;;5.15;1.40;;;;;;;;;;4989584;28;20508;-71
2022/12/31 01:50:18;;;;;;;3.00;1.33;;;;;;;;;;5016071;28;20342;-72
2022/12/31 01:52:46;;;;;;;2.30;1.02;;;;;;;;;;4997493;28;20050;-72
2022/12/31 01:55:16;;;;;;;2.47;1.20;;;;;;;;;;4963193;28;20068;-72
2022/12/31 02:02:35;;;;;;;1.80;1.05;;;;;;;;;;4886004;28;20054;-72
2022/12/31 02:05:03;;;;;;;1.63;0.82;;;;;;;;;;4908255;28;20040;-72
2022/12/31 02:07:31;;;;;;;2.30;1.00;;;;;;;;;;4950391;28;20062;-71
2022/12/31 02:09:58;;;;;;;1.48;0.90;;;;;;;;;;4963972;28;20046;-72
2022/12/31 02:12:24;;;;;;;1.83;1.00;;;;;;;;;;4966307;28;20496;-72
2022/12/31 02:14:52;;;;;;;2.13;1.10;;;;;;;;;;5028284;28;20087;-72
2022/12/31 02:17:24;;;;;;;4.05;0.95;;;;;;;;;;5021863;28;20059;-72
2022/12/31 02:20:05;;;;;;;2.10;1.45;;;;;;;;;;4992321;28;20071;-71
2022/12/31 02:22:43;;;;;;;2.38;1.08;;;;;;;;;;4980695;28;20064;-72
2022/12/31 02:25:25;;;;;;;3.03;0.82;;;;;;;;;;5014177;28;20053;-72
2022/12/31 02:28:04;;;;;;;6.97;1.10;;;;;;;;;;4981685;28;20045;-71
2022/12/31 02:30:33;;;;;;;2.05;0.90;;;;;;;;;;4955605;28;20077;-71
2022/12/31 02:32:59;;;;;;;;;;;;;;;;;;5000674;28;20040;-71
2022/12/31 02:35:30;;;;;;;1.23;0.75;;;;;;;;;;4980257;28;19936;-71
2022/12/31 02:38:01;;;;;;;1.67;0.90;;;;;;;;;;4991049;28;20050;-71
2022/12/31 02:40:30;;;;;;;2.03;0.77;;;;;;;;;;4968264;28;20045;-71
2022/12/31 02:42:57;;;;;;;1.15;0.75;;;;;;;;;;5013976;28;20060;-71
2022/12/31 02:45:27;;;;;;;2.20;0.80;;;;;;;;;;5002777;28;20060;-72
2022/12/31 02:48:00;;;;;;;2.25;0.88;;;;;;;;;;5030739;28;20057;-71
2022/12/31 02:50:32;;;;;;;2.05;1.00;;;;;;;;;;4972190;28;20073;-71
2022/12/31 02:53:04;;;;;;;2.20;0.93;;;;;;;;;;5017040;28;20049;-71
2022/12/31 02:55:34;;;;;;;1.75;0.90;;;;;;;;;;5011421;28;21278;-71
2022/12/31 02:58:06;;;;;;;1.33;0.93;;;;;;;;;;4999877;28;20137;-71
2022/12/31 03:03:23;;;;;;;1.48;0.75;;;;;;;;;;4918377;28;20115;-72
2022/12/31 03:05:50;;;;;;;1.40;0.80;;;;;;;;;;4965458;28;20070;-71
2022/12/31 03:08:21;;;;;;;1.25;0.75;;;;;;;;;;5043872;28;20069;-72
2022/12/31 03:10:47;;;;;;;1.38;0.80;;;;;;;;;;5047140;28;20037;-72
2022/12/31 03:13:13;;;;;;;1.08;0.75;;;;;;;;;;4941953;28;20056;-72
2022/12/31 03:15:40;;;;;;;1.58;0.95;;;;;;;;;;5000794;28;20046;-71
2022/12/31 03:18:09;;;;;;;1.25;0.77;;;;;;;;;;5001226;28;20509;-73
2022/12/31 03:28:32;;;;;;;2.10;0.90;;;;;;;;;;5034871;27;1346938;-71
2022/12/31 03:31:00;;;;;;;2.33;0.80;;;;;;;;;;5040795;28;20087;-72
2022/12/31 03:33:30;;;;;;;1.33;0.60;;;;;;;;;;5012740;28;21437;-72
2022/12/31 03:35:59;;;;;;;1.90;0.82;;;;;;;;;;5006898;28;20057;-72
2022/12/31 03:43:48;;;;;;;2.47;0.73;;;;;;;;;;5016637;27;20419;-73
2022/12/31 03:46:17;;;;;;;1.17;0.70;;;;;;;;;;4948216;28;20046;-74
2022/12/31 03:48:44;;;;;;;;;;;;;;;;;;4942278;28;20048;-73
2022/12/31 03:51:11;;;;;;;1.05;0.73;;;;;;;;;;4953609;28;20070;-75
2022/12/31 03:58:45;;;;;;;1.15;0.60;;;;;;;;;;4919956;27;20662;-74
2022/12/31 04:01:12;;;;;;;1.52;0.70;;;;;;;;;;4911968;28;20051;-72
2022/12/31 04:03:38;;;;;;;2.30;0.80;;;;;;;;;;4954831;28;20057;-74
2022/12/31 04:06:05;;;;;;;0.77;0.63;;;;;;;;;;4985661;28;20049;-74
2022/12/31 04:08:32;;;;;;;3.13;0.90;;;;;;;;;;4940460;28;20044;-74
2022/12/31 04:16:07;;;;;;;1.70;0.90;;;;;;;;;;5063867;27;20452;-74
2022/12/31 04:18:34;;;;;;;3.38;1.42;;;;;;;;;;5023201;28;20104;-75
2022/12/31 04:21:02;;;;;;;2.47;0.90;;;;;;;;;;5046815;28;20048;-73
2022/12/31 04:23:29;;;;;;;1.42;1.00;;;;;;;;;;5022910;28;20059;-74
2022/12/31 04:25:55;;;;;;;3.28;1.10;;;;;;;;;;5002796;28;20111;-73
2022/12/31 04:28:22;;;;;;;3.05;1.10;;;;;;;;;;5014612;28;20040;-72
2022/12/31 04:30:49;;;;;;;2.75;1.10;;;;;;;;;;5000630;28;20077;-72
2022/12/31 04:33:17;;;;;;;3.50;1.08;;;;;;;;;;5009092;28;20128;-72
2022/12/31 04:35:44;;;;;;;1.63;1.13;;;;;;;;;;5002444;28;20056;-74
2022/12/31 04:38:11;;;;;;;1.50;0.80;;;;;;;;;;5017658;28;20140;-73
2022/12/31 04:46:13;;;;;;;2.60;1.10;;;;;;;;;;5046652;27;20472;-73
2022/12/31 04:48:40;;;;;;;4.57;1.33;;;;;;;;;;4993073;28;20516;-73
2022/12/31 04:51:07;;;;;;;2.17;1.20;;;;;;;;;;4992152;28;20054;-73
2022/12/31 04:58:58;;;;;;;1.70;1.20;;;;;;;;;;5063467;27;20521;-74
2022/12/31 05:01:25;;;;;;;2.78;1.20;;;;;;;;;;4954898;28;20603;-73
2022/12/31 05:03:53;;;;;;;3.42;1.50;;;;;;;;;;4861420;29;20050;-72
2022/12/31 05:06:21;;;;;;;2.72;1.30;;;;;;;;;;4888630;29;20112;-73
2022/12/31 05:08:49;;;;;;;3.13;1.30;;;;;;;;;;4916363;28;20049;-72
2022/12/31 05:11:16;;;;;;;1.85;1.10;;;;;;;;;;5014611;28;20071;-73
2022/12/31 05:13:45;;;;;;;5.10;1.50;;;;;;;;;;5007083;28;20041;-72
2022/12/31 05:16:11;;;;;;;;;;;;;;;;;;4988289;28;20135;-74
2022/12/31 05:18:40;;;;;;;1.13;0.90;;;;;;;;;;4909827;28;19931;-72
2022/12/31 05:21:08;;;;;;;2.15;1.20;;;;;;;;;;4921914;28;20064;-73
2022/12/31 05:23:35;;;;;;;1.95;1.20;;;;;;;;;;5038464;28;20049;-72
2022/12/31 05:26:02;;;;;;;2.33;1.02;;;;;;;;;;4974029;28;20045;-73
2022/12/31 05:28:29;;;;;;;2.58;1.40;;;;;;;;;;5013434;28;20052;-73
2022/12/31 05:30:55;;;;;;;1.80;1.02;;;;;;;;;;5020986;28;20155;-73
2022/12/31 05:33:22;;;;;;;1.98;1.10;;;;;;;;;;4941801;28;20133;-73
2022/12/31 05:41:03;;;;;;;1.83;0.93;;;;;;;;;;5078527;27;20915;-71
2022/12/31 05:43:30;;;;;;;;;;;;;;;;;;5015471;28;20058;-71
2022/12/31 05:45:56;;;;;;;2.28;1.10;;;;;;;;;;5038445;28;19939;-71
2022/12/31 05:48:23;;;;;;;2.33;1.25;;;;;;;;;;5006987;28;20144;-71
2022/12/31 05:50:51;;;;;;;1.63;1.00;;;;;;;;;;5001758;28;20070;-71
2022/12/31 05:53:18;;;;;;;2.00;1.20;;;;;;;;;;5006370;28;20140;-71
2022/12/31 05:55:45;;;;;;;1.70;1.00;;;;;;;;;;5029147;28;20241;-71
2022/12/31 05:58:16;;;;;;;1.80;1.00;;;;;;;;;;5018371;28;20106;-71
2022/12/31 06:00:43;;;;;;;1.77;1.00;;;;;;;;;;5027644;28;20383;-71
2022/12/31 06:03:10;;;;;;;2.13;1.10;;;;;;;;;;4992108;28;20057;-72
2022/12/31 06:05:39;;;;;;;1.63;1.00;;;;;;;;;;4974733;28;20124;-71
2022/12/31 06:08:06;;;;;;;1.58;0.90;;;;;;;;;;4997776;28;20057;-71
2022/12/31 06:10:33;;;;;;;1.85;1.00;;;;;;;;;;5014142;28;20068;-70
2022/12/31 06:13:00;;;;;;;2.15;1.00;;;;;;;;;;5031233;28;20045;-71
2022/12/31 06:15:38;;;;;;;1.15;0.93;;;;;;;;;;5030793;28;20068;-71
2022/12/31 06:18:05;;;;;;;1.00;0.77;;;;;;;;;;5040353;28;20061;-71
2022/12/31 06:20:36;;;;;;;2.03;1.00;;;;;;;;;;5018518;28;20139;-71
2022/12/31 06:23:04;;;;;;;;;;;;;;;;;;5000378;28;20080;-72
2022/12/31 06:25:31;;;;;;;1.23;0.90;;;;;;;;;;5009370;28;20116;-71
2022/12/31 06:27:57;;;;;;;1.80;1.05;;;;;;;;;;5005044;28;20051;-71
2022/12/31 06:30:24;;;;;;;1.50;0.93;;;;;;;;;;5033642;28;20041;-71
2022/12/31 06:32:55;;;;;;;1.05;0.90;;;;;;;;;;5003383;28;20042;-71
2022/12/31 06:35:22;;;;;;;1.00;0.80;;;;;;;;;;4985050;28;20057;-71
2022/12/31 06:37:49;;;;;;;1.00;0.70;;;;;;;;;;4980123;28;20053;-71
2022/12/31 06:40:16;;;;;;;1.58;0.70;;;;;;;;;;5005797;28;20248;-71
2022/12/31 06:42:42;;;;;;;1.65;0.90;;;;;;;;;;5000056;28;20046;-71
2022/12/31 06:45:12;;;;;;;0.90;0.80;;;;;;;;;;5026698;28;20052;-72
2022/12/31 06:47:41;;;;;;;0.90;0.68;;;;;;;;;;5051336;28;20084;-71
2022/12/31 06:50:12;;;;;;;1.70;0.90;;;;;;;;;;4994204;28;20182;-72
2022/12/31 06:52:39;;;;;;;1.77;0.90;;;;;;;;;;5033242;28;20053;-71
2022/12/31 06:55:11;;;;;;;1.77;1.00;;;;;;;;;;4967913;28;20248;-72
2022/12/31 06:57:38;;;;;;;1.25;0.73;;;;;;;;;;5017479;28;20125;-71
2022/12/31 07:00:05;;;;;;;0.93;0.80;;;;;;;;;;4980016;28;20057;-72
2022/12/31 07:02:53;;;;;;;0.80;0.68;;;;;;;;;;4982626;28;20049;-72
2022/12/31 07:08:17;;;;;;;1.25;0.70;;;;;;;;;;5057047;27;20396;-72
2022/12/31 07:10:48;;;;;;;1.63;0.60;;;;;;;;;;5012370;28;20435;-73
2022/12/31 07:13:23;;;;;;;1.38;0.73;;;;;;;;;;5049836;28;20052;-72
2022/12/31 07:15:57;;;;;;;0.60;0.60;;;;;;;;;;5020478;28;20048;-70
2022/12/31 07:18:33;;;;;;;0.90;0.65;;;;;;;;;;5058483;28;20048;-73
2022/12/31 07:21:02;;;;;;;1.40;0.70;;;;;;;;;;4986432;28;20070;-72
2022/12/31 07:23:31;;;;;;;0.73;0.73;;;;;;;;;;5016068;28;20125;-73
2022/12/31 07:26:02;;;;;;;1.38;0.65;;;;;;;;;;5023211;28;20049;-74
2022/12/31 07:28:36;;;;;;;2.40;0.70;;;;;;;;;;5025596;28;20450;-74
2022/12/31 07:31:06;;;;;;;0.90;0.70;;;;;;;;;;4987082;28;20065;-71
2022/12/31 07:33:39;;;;;;;1.08;0.68;;;;;;;;;;4958203;28;20054;-71
2022/12/31 07:36:10;;;;;;;1.20;0.70;;;;;;;;;;4947405;28;20050;-73
2022/12/31 07:38:43;;;;;;;0.90;0.70;;;;;;;;;;5013718;28;20145;-72
2022/12/31 07:41:16;;;;;;;2.05;0.70;;;;;;;;;;5044742;28;20073;-72
2022/12/31 07:43:52;;;;;;;0.80;0.80;;;;;;;;;;5042946;28;20063;-72
2022/12/31 07:51:26;;;;;;;1.65;0.80;;;;;;;;;;5034086;27;20455;-73
2022/12/31 07:53:53;;;;;;;1.98;0.98;;;;;;;;;;5019988;28;20079;-73
2022/12/31 07:56:21;;;;;;;0.90;0.85;;;;;;;;;;4971123;28;20124;-73
2022/12/31 08:01:19;;;;;;;1.15;1.00;;;;;;;;;;4962464;28;20053;-73
2022/12/31 08:03:51;;;;;;;1.83;1.20;;;;;;;;;;5027297;28;20068;-73
2022/12/31 08:06:27;;;;;;;1.95;1.30;;;;;;;;;;4979368;28;20075;-72
2022/12/31 08:09:01;;;;;;;2.17;1.08;;;;;;;;;;4974954;28;20165;-73
2022/12/31 08:11:32;;;;;;;2.95;0.98;;;;;;;;;;4979721;28;20894;-73
2022/12/31 08:14:00;;;;;;;2.75;0.90;;;;;;;;;;5039879;28;20044;-70
2022/12/31 08:16:27;;;;;;;1.55;0.80;;;;;;;;;;4986956;28;20041;-74
2022/12/31 08:18:57;;;;;;;1.77;1.10;;;;;;;;;;5014414;28;20103;-70
2022/12/31 08:21:31;;;;;;;1.30;0.80;;;;;;;;;;5002394;28;20068;-71
2022/12/31 08:24:06;;;;;;;1.05;0.80;;;;;;;;;;5032033;28;20053;-70
2022/12/31 08:26:36;;;;;;;1.60;0.73;;;;;;;;;;4989764;28;20153;-71
2022/12/31 08:29:11;;;;;;;1.15;0.65;;;;;;;;;;5019197;28;20153;-70
2022/12/31 08:31:43;;;;;;;0.73;0.63;;;;;;;;;;5001429;28;20064;-72
2022/12/31 08:34:17;;;;;;;0.93;0.60;;;;;;;;;;5016827;28;20111;-71
2022/12/31 08:36:48;;;;;;;1.48;0.70;;;;;;;;;;4986178;28;20037;-71
2022/12/31 08:39:21;;;;;;;2.08;0.82;;;;;;;;;;5024122;28;20045;-73
2022/12/31 08:41:50;;;;;;;1.95;0.70;;;;;;;;;;4990579;28;20041;-71
2022/12/31 08:44:21;;;;;;;1.88;0.80;;;;;;;;;;4984184;28;20054;-71
2022/12/31 08:46:55;;;;;;;1.77;0.60;;;;;;;;;;4971208;28;20045;-71
2022/12/31 08:49:24;;;;;;;1.90;0.70;;;;;;;;;;4986691;28;20049;-71
2022/12/31 08:51:52;;;;;;;1.08;0.50;;;;;;;;;;5011690;28;20054;-72
2022/12/31 08:54:24;;;;;;;0.40;0.40;;;;;;;;;;5000143;28;20057;-71
2022/12/31 08:56:52;;;;;;;1.42;0.60;;;;;;;;;;5033304;28;20064;-72
2022/12/31 08:59:36;;;;;;;0.77;0.50;;;;;;;;;;5016680;28;20052;-71
2022/12/31 09:02:14;;;;;;;3.13;0.60;;;;;;;;;;4998154;28;20054;-71
2022/12/31 09:04:46;;;;;;;0.60;0.47;;;;;;;;;;4975884;28;20060;-73
2022/12/31 09:12:19;;;;;;;0.85;0.50;;;;;;;;;;4823737;29;20049;-72
2022/12/31 09:17:24;;;;;;;0.73;0.40;;;;;;;;;;4802726;29;20045;-73
2022/12/31 09:19:54;;;;;;;0.98;0.40;;;;;;;;;;4876819;28;20059;-73
2022/12/31 09:22:24;;;;;;;0.40;0.30;;;;;;;;;;4902305;28;20055;-73
2022/12/31 09:30:09;;;;;;;2.60;1.00;;;;;;;;;;4954896;27;20430;-73
2022/12/31 09:32:42;;;;;;;1.02;0.68;;;;;;;;;;5010528;28;20045;-73
2022/12/31 09:35:19;;;;;;;3.15;0.63;;;;;;;;;;4946717;28;20050;-73
2022/12/31 09:40:35;;;;;;;1.20;0.70;;;;;;;;;;4850642;28;20110;-74
2022/12/31 09:43:29;;;;;;;1.87;0.67;;;;;;;;;;4901687;28;20051;-74
2022/12/31 09:51:30;;;;;;;1.00;0.60;;;;;;;;;;5013068;27;20479;-71
2022/12/31 09:54:20;;;;;;;1.30;0.60;;;;;;;;;;4930664;28;20094;-72
2022/12/31 09:56:50;;;;;;;0.50;0.50;;;;;;;;;;4885005;28;20106;-72
2022/12/31 09:59:23;;;;;;;1.20;0.55;;;;;;;;;;4904887;28;20050;-71
2022/12/31 10:01:53;;;;;;;1.75;0.80;;;;;;;;;;4899824;28;20054;-72
2022/12/31 10:04:33;;;;;;;3.05;0.93;;;;;;;;;;4900453;28;20058;-74
2022/12/31 10:07:11;;;;;;;4.95;0.82;;;;;;;;;;4900114;29;20055;-72
2022/12/31 10:09:48;;;;;;;2.97;0.85;;;;;;;;;;4875029;29;20048;-75
2022/12/31 10:25:09;;;;;;;2.92;1.00;;;;;;;;;;5018658;27;20423;-75
2022/12/31 10:27:48;;;;;;;3.97;1.00;;;;;;;;;;4946393;28;20042;-76
2022/12/31 10:30:18;;;;;;;1.10;0.80;;;;;;;;;;4924434;28;20051;-70
2022/12/31 10:32:51;;;;;;;2.92;0.98;;;;;;;;;;4868732;29;20298;-70
2022/12/31 10:39:48;;;;;;;0.90;0.68;;;;;;;;;;5022288;27;20489;-74
2022/12/31 10:42:34;;;;;;;2.50;1.15;;;;;;;;;;4945055;28;20060;-75
2022/12/31 10:45:19;;;;;;;5.18;1.10;;;;;;;;;;5045284;28;20071;-76
2022/12/31 11:03:21;;;;;;;3.67;1.10;;;;;;;;;;4995888;27;20449;-77
2022/12/31 11:06:08;;;;;;;4.45;1.38;;;;;;;;;;4933867;28;20082;-75
2022/12/31 11:26:56;;;;;;;3.47;1.33;;;;;;;;;;6185308;22;1474053;-76
2022/12/31 11:29:47;;;;;;;;;;;;;;;;;;;;;
2022/12/31 11:32:57;;;;;;;2.53;1.25;;;;;;;;;;6127976;23;20095;-73
2022/12/31 11:35:38;;;;;;;4.15;1.20;;;;;;;;;;6123248;23;20036;-71
2022/12/31 11:43:58;;;;;;;3.30;1.20;;;;;;;;;;4930207;28;20055;-73
2022/12/31 11:46:40;;;;;;;2.20;1.13;;;;;;;;;;4908750;28;20401;-71
2022/12/31 11:49:15;;;;;;;2.28;0.90;;;;;;;;;;4912816;28;20166;-68
2022/12/31 11:51:54;;;;;;;3.85;1.10;;;;;;;;;;4929309;28;20057;-69
2022/12/31 11:54:30;;;;;;;8.15;1.35;;;;;;;;;;4919124;28;20051;-73
2022/12/31 11:57:07;;;;;;;4.93;1.30;;;;;;;;;;4888896;28;20242;-73
2022/12/31 11:59:37;;;;;;;4.72;1.20;;;;;;;;;;4894240;28;20139;-75
2022/12/31 12:07:15;;;;;;;4.45;1.10;;;;;;;;;;4985642;27;1508711;-73
2022/12/31 12:09:47;;;;;;;6.07;1.10;;;;;;;;;;4992898;28;20048;-73
2022/12/31 12:31:11;;;;;;;3.77;1.20;;;;;;;;;;6142964;22;2266067;-71
2022/12/31 12:33:42;;;;;;;5.72;1.13;;;;;;;;;;6081537;23;20056;-72
2022/12/31 12:36:09;;;;;;;2.55;1.20;;;;;;;;;;6091509;23;20028;-70
2022/12/31 12:38:37;;;;;;;7.32;0.95;;;;;;;;;;5967935;23;20329;-72
2022/12/31 12:41:06;;;;;;;4.00;0.77;;;;;;;;;;6001274;23;20031;-70
2022/12/31 12:43:35;;;;;;;4.32;1.08;;;;;;;;;;5969367;23;20038;-70
2022/12/31 12:46:07;;;;;;;2.80;1.00;;;;;;;;;;6015930;23;20084;-71
2022/12/31 12:48:39;;;;;;;5.60;1.35;;;;;;;;;;6039434;23;20025;-73
2022/12/31 12:51:20;;;;;;;6.22;1.40;;;;;;;;;;5985989;23;20029;-70
2022/12/31 12:53:55;;;;;;;3.53;1.10;;;;;;;;;;5948359;24;20038;-70
2022/12/31 12:56:33;;;;;;;2.35;1.00;;;;;;;;;;5896674;24;20028;-72
2022/12/31 13:12:36;;;;;;;2.97;1.05;;;;;;;;;;5559652;21;15094095;-71
2022/12/31 14:04:48;;;;;;;21.08;12.30;;;;;;;;;;6080623;22;1893790;-71
2022/12/31 14:10:13;;;;;;;20.58;11.60;;;;;;;;;;6029256;23;20057;-71
2022/12/31 14:12:49;;;;;;;19.73;10.48;;;;;;;;;;6027981;23;20197;-71
2022/12/31 14:15:23;;;;;;;18.88;10.13;;;;;;;;;;6015475;23;20022;-74
2022/12/31 14:18:00;;;;;;;15.55;9.10;;;;;;;;;;6024656;23;20106;-71
2022/12/31 14:20:31;;;;;;;18.88;8.05;;;;;;;;;;6034569;23;20112;-71
2022/12/31 14:23:03;;;;;;;14.32;8.10;;;;;;;;;;6127010;23;20076;-72
2022/12/31 14:25:33;;;;;;;15.38;8.50;;;;;;;;;;6092650;23;20039;-72
2022/12/31 21:24:34;;;;;;;13.68;4.50;;;;;;;;;;6109990;22;1562857;-82
2022/12/31 22:03:26;;;;;;;14.20;4.63;;;;;;;;;;6286408;22;2123482;-83
2022/12/31 22:05:57;;;;;;;15.52;5.30;;;;;;;;;;6178412;22;20054;-83
2022/12/31 23:26:39;;;;;;;87.43;42.03;;;;;;;;;;5937327;23;20028;-72
